sensor_id;sensor_type;location;lat;lon;timestamp;P1;durP1;ratioP1;P2;durP2;ratioP2
2570;SDS011;1295;51.130;6.732;2023-08-30T00:01:36;69.50;;;28.23;;
2570;SDS011;1295;51.130;6.732;2023-08-30T00:04:01;69.10;;;30.03;;
2570;SDS011;1295;51.130;6.732;2023-08-30T00:06:27;79.37;;;34.70;;
2570;SDS011;1295;51.130;6.732;2023-08-30T00:08:53;73.47;;;30.33;;
2570;SDS011;1295;51.130;6.732;2023-08-30T00:11:20;75.53;;;30.17;;
2570;SDS011;1295;51.130;6.732;2023-08-30T00:13:45;79.87;;;29.00;;
2570;SDS011;1295;51.130;6.732;2023-08-30T00:16:11;76.13;;;29.23;;
2570;SDS011;1295;51.130;6.732;2023-08-30T00:18:37;69.43;;;25.30;;
2570;SDS011;1295;51.130;6.732;2023-08-30T00:21:02;73.47;;;25.07;;
2570;SDS011;1295;51.130;6.732;2023-08-30T00:23:29;69.03;;;25.23;;
2570;SDS011;1295;51.130;6.732;2023-08-30T00:25:54;71.50;;;24.33;;
2570;SDS011;1295;51.130;6.732;2023-08-30T00:28:21;71.10;;;24.47;;
2570;SDS011;1295;51.130;6.732;2023-08-30T00:30:52;72.40;;;23.97;;
2570;SDS011;1295;51.130;6.732;2023-08-30T00:33:12;75.30;;;25.03;;
2570;SDS011;1295;51.130;6.732;2023-08-30T00:35:38;72.60;;;24.60;;
2570;SDS011;1295;51.130;6.732;2023-08-30T00:38:04;69.17;;;24.90;;
2570;SDS011;1295;51.130;6.732;2023-08-30T00:40:41;68.83;;;25.50;;
2570;SDS011;1295;51.130;6.732;2023-08-30T00:43:07;72.87;;;25.40;;
2570;SDS011;1295;51.130;6.732;2023-08-30T00:45:32;70.77;;;26.50;;
2570;SDS011;1295;51.130;6.732;2023-08-30T00:47:57;71.93;;;25.47;;
2570;SDS011;1295;51.130;6.732;2023-08-30T00:50:24;69.03;;;24.70;;
2570;SDS011;1295;51.130;6.732;2023-08-30T00:52:49;69.70;;;26.50;;
2570;SDS011;1295;51.130;6.732;2023-08-30T00:55:15;72.13;;;28.40;;
2570;SDS011;1295;51.130;6.732;2023-08-30T00:57:41;71.87;;;27.90;;
2570;SDS011;1295;51.130;6.732;2023-08-30T01:00:07;72.40;;;28.83;;
2570;SDS011;1295;51.130;6.732;2023-08-30T01:02:35;73.10;;;27.93;;
2570;SDS011;1295;51.130;6.732;2023-08-30T01:05:02;69.07;;;25.97;;
2570;SDS011;1295;51.130;6.732;2023-08-30T01:07:26;68.13;;;29.20;;
2570;SDS011;1295;51.130;6.732;2023-08-30T01:09:52;68.20;;;28.77;;
2570;SDS011;1295;51.130;6.732;2023-08-30T01:12:20;70.93;;;28.13;;
2570;SDS011;1295;51.130;6.732;2023-08-30T01:14:44;70.67;;;30.20;;
2570;SDS011;1295;51.130;6.732;2023-08-30T01:17:10;69.70;;;30.17;;
2570;SDS011;1295;51.130;6.732;2023-08-30T01:19:42;67.77;;;29.03;;
2570;SDS011;1295;51.130;6.732;2023-08-30T01:22:14;70.77;;;27.83;;
2570;SDS011;1295;51.130;6.732;2023-08-30T01:24:43;71.77;;;28.87;;
2570;SDS011;1295;51.130;6.732;2023-08-30T01:27:08;66.80;;;25.07;;
2570;SDS011;1295;51.130;6.732;2023-08-30T01:29:34;66.30;;;28.77;;
2570;SDS011;1295;51.130;6.732;2023-08-30T01:32:00;75.57;;;29.70;;
2570;SDS011;1295;51.130;6.732;2023-08-30T01:34:25;71.53;;;28.70;;
2570;SDS011;1295;51.130;6.732;2023-08-30T01:36:51;72.07;;;30.20;;
2570;SDS011;1295;51.130;6.732;2023-08-30T01:39:16;71.50;;;24.70;;
2570;SDS011;1295;51.130;6.732;2023-08-30T01:41:42;68.63;;;24.00;;
2570;SDS011;1295;51.130;6.732;2023-08-30T01:44:08;69.93;;;24.60;;
2570;SDS011;1295;51.130;6.732;2023-08-30T01:46:33;64.47;;;22.07;;
2570;SDS011;1295;51.130;6.732;2023-08-30T01:49:01;70.60;;;21.40;;
2570;SDS011;1295;51.130;6.732;2023-08-30T01:51:25;65.87;;;18.60;;
2570;SDS011;1295;51.130;6.732;2023-08-30T01:53:51;64.53;;;18.40;;
2570;SDS011;1295;51.130;6.732;2023-08-30T01:56:17;62.90;;;17.60;;
2570;SDS011;1295;51.130;6.732;2023-08-30T01:58:42;63.03;;;17.23;;
2570;SDS011;1295;51.130;6.732;2023-08-30T02:01:08;64.80;;;15.60;;
2570;SDS011;1295;51.130;6.732;2023-08-30T02:03:34;62.57;;;17.17;;
2570;SDS011;1295;51.130;6.732;2023-08-30T02:06:11;62.87;;;15.67;;
2570;SDS011;1295;51.130;6.732;2023-08-30T02:08:38;67.93;;;18.20;;
2570;SDS011;1295;51.130;6.732;2023-08-30T02:11:02;66.10;;;18.93;;
2570;SDS011;1295;51.130;6.732;2023-08-30T02:13:27;65.07;;;17.20;;
2570;SDS011;1295;51.130;6.732;2023-08-30T02:15:55;66.67;;;18.67;;
2570;SDS011;1295;51.130;6.732;2023-08-30T02:18:20;63.80;;;15.07;;
2570;SDS011;1295;51.130;6.732;2023-08-30T02:20:45;64.87;;;16.80;;
2570;SDS011;1295;51.130;6.732;2023-08-30T02:23:11;62.80;;;16.30;;
2570;SDS011;1295;51.130;6.732;2023-08-30T02:25:37;65.50;;;17.27;;
2570;SDS011;1295;51.130;6.732;2023-08-30T02:28:03;67.87;;;16.60;;
2570;SDS011;1295;51.130;6.732;2023-08-30T02:30:30;63.40;;;15.57;;
2570;SDS011;1295;51.130;6.732;2023-08-30T02:32:55;61.33;;;15.10;;
2570;SDS011;1295;51.130;6.732;2023-08-30T02:35:21;64.60;;;18.43;;
2570;SDS011;1295;51.130;6.732;2023-08-30T02:37:47;62.80;;;17.17;;
2570;SDS011;1295;51.130;6.732;2023-08-30T02:40:13;64.03;;;16.23;;
2570;SDS011;1295;51.130;6.732;2023-08-30T02:42:39;61.70;;;15.90;;
2570;SDS011;1295;51.130;6.732;2023-08-30T02:45:05;66.17;;;16.83;;
2570;SDS011;1295;51.130;6.732;2023-08-30T02:47:32;63.30;;;16.37;;
2570;SDS011;1295;51.130;6.732;2023-08-30T02:49:58;65.33;;;15.70;;
2570;SDS011;1295;51.130;6.732;2023-08-30T02:52:25;64.10;;;16.47;;
2570;SDS011;1295;51.130;6.732;2023-08-30T02:54:51;64.47;;;15.97;;
2570;SDS011;1295;51.130;6.732;2023-08-30T02:57:17;63.60;;;16.40;;
2570;SDS011;1295;51.130;6.732;2023-08-30T02:59:43;65.07;;;15.17;;
2570;SDS011;1295;51.130;6.732;2023-08-30T03:02:08;64.13;;;15.80;;
2570;SDS011;1295;51.130;6.732;2023-08-30T03:04:34;64.97;;;14.30;;
2570;SDS011;1295;51.130;6.732;2023-08-30T03:07:00;61.57;;;13.80;;
2570;SDS011;1295;51.130;6.732;2023-08-30T03:09:25;66.50;;;15.50;;
2570;SDS011;1295;51.130;6.732;2023-08-30T03:11:52;63.57;;;15.60;;
2570;SDS011;1295;51.130;6.732;2023-08-30T03:14:18;66.13;;;14.57;;
2570;SDS011;1295;51.130;6.732;2023-08-30T03:16:44;64.93;;;14.43;;
2570;SDS011;1295;51.130;6.732;2023-08-30T03:19:09;59.10;;;12.77;;
2570;SDS011;1295;51.130;6.732;2023-08-30T03:21:35;64.30;;;15.40;;
2570;SDS011;1295;51.130;6.732;2023-08-30T03:24:01;60.70;;;12.57;;
2570;SDS011;1295;51.130;6.732;2023-08-30T03:26:26;61.00;;;12.30;;
2570;SDS011;1295;51.130;6.732;2023-08-30T03:28:52;64.60;;;12.70;;
2570;SDS011;1295;51.130;6.732;2023-08-30T03:31:18;62.83;;;14.20;;
2570;SDS011;1295;51.130;6.732;2023-08-30T03:33:44;64.37;;;13.40;;
2570;SDS011;1295;51.130;6.732;2023-08-30T03:36:10;60.40;;;12.63;;
2570;SDS011;1295;51.130;6.732;2023-08-30T03:38:35;61.30;;;12.40;;
2570;SDS011;1295;51.130;6.732;2023-08-30T03:41:01;60.67;;;12.30;;
2570;SDS011;1295;51.130;6.732;2023-08-30T03:43:26;59.27;;;12.50;;
2570;SDS011;1295;51.130;6.732;2023-08-30T03:45:52;61.20;;;13.77;;
2570;SDS011;1295;51.130;6.732;2023-08-30T03:48:18;62.00;;;11.80;;
2570;SDS011;1295;51.130;6.732;2023-08-30T03:50:43;62.70;;;13.40;;
2570;SDS011;1295;51.130;6.732;2023-08-30T03:53:09;61.63;;;13.40;;
2570;SDS011;1295;51.130;6.732;2023-08-30T03:55:35;60.40;;;13.70;;
2570;SDS011;1295;51.130;6.732;2023-08-30T03:58:01;60.17;;;13.90;;
2570;SDS011;1295;51.130;6.732;2023-08-30T04:00:26;65.67;;;13.20;;
2570;SDS011;1295;51.130;6.732;2023-08-30T04:02:52;63.70;;;12.87;;
2570;SDS011;1295;51.130;6.732;2023-08-30T04:05:18;59.70;;;12.30;;
2570;SDS011;1295;51.130;6.732;2023-08-30T04:07:43;60.07;;;14.80;;
2570;SDS011;1295;51.130;6.732;2023-08-30T04:10:09;61.60;;;14.63;;
2570;SDS011;1295;51.130;6.732;2023-08-30T04:12:35;59.90;;;14.87;;
2570;SDS011;1295;51.130;6.732;2023-08-30T04:15:05;65.47;;;16.07;;
2570;SDS011;1295;51.130;6.732;2023-08-30T04:17:32;61.93;;;16.67;;
2570;SDS011;1295;51.130;6.732;2023-08-30T04:19:59;60.90;;;15.60;;
2570;SDS011;1295;51.130;6.732;2023-08-30T04:22:24;64.87;;;17.57;;
2570;SDS011;1295;51.130;6.732;2023-08-30T04:24:51;61.53;;;14.57;;
2570;SDS011;1295;51.130;6.732;2023-08-30T04:27:16;64.53;;;16.70;;
2570;SDS011;1295;51.130;6.732;2023-08-30T04:29:42;63.77;;;16.93;;
2570;SDS011;1295;51.130;6.732;2023-08-30T04:32:07;63.33;;;16.73;;
2570;SDS011;1295;51.130;6.732;2023-08-30T04:34:33;62.70;;;16.83;;
2570;SDS011;1295;51.130;6.732;2023-08-30T04:36:59;76.83;;;19.87;;
2570;SDS011;1295;51.130;6.732;2023-08-30T04:39:24;66.50;;;17.40;;
2570;SDS011;1295;51.130;6.732;2023-08-30T04:41:50;68.70;;;15.97;;
2570;SDS011;1295;51.130;6.732;2023-08-30T04:44:16;69.27;;;22.40;;
2570;SDS011;1295;51.130;6.732;2023-08-30T04:46:41;66.40;;;21.70;;
2570;SDS011;1295;51.130;6.732;2023-08-30T04:49:07;66.00;;;22.10;;
2570;SDS011;1295;51.130;6.732;2023-08-30T04:51:32;68.10;;;25.53;;
2570;SDS011;1295;51.130;6.732;2023-08-30T04:53:58;71.83;;;24.87;;
2570;SDS011;1295;51.130;6.732;2023-08-30T04:56:24;69.27;;;26.27;;
2570;SDS011;1295;51.130;6.732;2023-08-30T04:58:50;73.33;;;29.27;;
2570;SDS011;1295;51.130;6.732;2023-08-30T05:01:16;68.50;;;27.03;;
2570;SDS011;1295;51.130;6.732;2023-08-30T05:03:41;73.57;;;28.57;;
2570;SDS011;1295;51.130;6.732;2023-08-30T05:06:07;70.47;;;27.77;;
2570;SDS011;1295;51.130;6.732;2023-08-30T05:08:32;75.30;;;28.13;;
2570;SDS011;1295;51.130;6.732;2023-08-30T05:10:58;69.67;;;23.00;;
2570;SDS011;1295;51.130;6.732;2023-08-30T05:13:24;69.37;;;25.03;;
2570;SDS011;1295;51.130;6.732;2023-08-30T05:15:49;65.03;;;21.57;;
2570;SDS011;1295;51.130;6.732;2023-08-30T05:18:15;69.20;;;24.20;;
2570;SDS011;1295;51.130;6.732;2023-08-30T05:20:41;66.77;;;22.30;;
2570;SDS011;1295;51.130;6.732;2023-08-30T05:23:06;68.97;;;22.00;;
2570;SDS011;1295;51.130;6.732;2023-08-30T05:25:32;59.43;;;15.13;;
2570;SDS011;1295;51.130;6.732;2023-08-30T05:27:59;73.27;;;25.87;;
2570;SDS011;1295;51.130;6.732;2023-08-30T05:30:24;63.33;;;20.67;;
2570;SDS011;1295;51.130;6.732;2023-08-30T05:32:50;67.60;;;23.00;;
2570;SDS011;1295;51.130;6.732;2023-08-30T05:35:16;65.13;;;24.27;;
2570;SDS011;1295;51.130;6.732;2023-08-30T05:37:42;62.00;;;16.93;;
2570;SDS011;1295;51.130;6.732;2023-08-30T05:40:08;63.50;;;19.60;;
2570;SDS011;1295;51.130;6.732;2023-08-30T05:42:35;66.17;;;21.53;;
2570;SDS011;1295;51.130;6.732;2023-08-30T05:45:00;66.90;;;26.63;;
2570;SDS011;1295;51.130;6.732;2023-08-30T05:47:26;68.43;;;18.93;;
2570;SDS011;1295;51.130;6.732;2023-08-30T05:49:51;62.00;;;17.10;;
2570;SDS011;1295;51.130;6.732;2023-08-30T05:52:18;64.93;;;15.93;;
2570;SDS011;1295;51.130;6.732;2023-08-30T05:54:43;62.03;;;15.50;;
2570;SDS011;1295;51.130;6.732;2023-08-30T05:57:09;65.67;;;14.90;;
2570;SDS011;1295;51.130;6.732;2023-08-30T05:59:35;62.43;;;14.83;;
2570;SDS011;1295;51.130;6.732;2023-08-30T06:02:11;63.40;;;14.67;;
2570;SDS011;1295;51.130;6.732;2023-08-30T06:04:37;60.27;;;13.50;;
2570;SDS011;1295;51.130;6.732;2023-08-30T06:07:02;62.50;;;14.40;;
2570;SDS011;1295;51.130;6.732;2023-08-30T06:09:28;63.20;;;15.30;;
2570;SDS011;1295;51.130;6.732;2023-08-30T06:11:54;63.40;;;14.40;;
2570;SDS011;1295;51.130;6.732;2023-08-30T06:14:19;69.60;;;16.23;;
2570;SDS011;1295;51.130;6.732;2023-08-30T06:16:45;64.83;;;15.40;;
2570;SDS011;1295;51.130;6.732;2023-08-30T06:19:11;69.07;;;14.90;;
2570;SDS011;1295;51.130;6.732;2023-08-30T06:21:36;64.33;;;11.67;;
2570;SDS011;1295;51.130;6.732;2023-08-30T06:24:02;60.93;;;13.53;;
2570;SDS011;1295;51.130;6.732;2023-08-30T06:26:28;64.13;;;11.43;;
2570;SDS011;1295;51.130;6.732;2023-08-30T06:28:53;57.87;;;12.90;;
2570;SDS011;1295;51.130;6.732;2023-08-30T06:31:19;60.63;;;10.10;;
2570;SDS011;1295;51.130;6.732;2023-08-30T06:33:45;65.13;;;14.47;;
2570;SDS011;1295;51.130;6.732;2023-08-30T06:36:10;57.63;;;11.03;;
2570;SDS011;1295;51.130;6.732;2023-08-30T06:38:36;63.10;;;14.00;;
2570;SDS011;1295;51.130;6.732;2023-08-30T06:41:02;58.00;;;12.13;;
2570;SDS011;1295;51.130;6.732;2023-08-30T06:43:27;62.10;;;14.93;;
2570;SDS011;1295;51.130;6.732;2023-08-30T06:45:56;62.77;;;16.10;;
2570;SDS011;1295;51.130;6.732;2023-08-30T06:48:19;63.40;;;15.60;;
2570;SDS011;1295;51.130;6.732;2023-08-30T06:50:45;58.40;;;13.40;;
2570;SDS011;1295;51.130;6.732;2023-08-30T06:53:11;69.23;;;16.73;;
2570;SDS011;1295;51.130;6.732;2023-08-30T06:55:36;62.80;;;18.90;;
2570;SDS011;1295;51.130;6.732;2023-08-30T06:58:02;65.60;;;16.73;;
2570;SDS011;1295;51.130;6.732;2023-08-30T07:00:29;65.63;;;16.50;;
2570;SDS011;1295;51.130;6.732;2023-08-30T07:02:55;66.63;;;19.00;;
2570;SDS011;1295;51.130;6.732;2023-08-30T07:05:21;65.17;;;20.93;;
2570;SDS011;1295;51.130;6.732;2023-08-30T07:07:46;62.97;;;21.20;;
2570;SDS011;1295;51.130;6.732;2023-08-30T07:10:12;64.63;;;21.90;;
2570;SDS011;1295;51.130;6.732;2023-08-30T07:12:38;64.30;;;20.23;;
2570;SDS011;1295;51.130;6.732;2023-08-30T07:15:04;66.90;;;22.20;;
2570;SDS011;1295;51.130;6.732;2023-08-30T07:17:30;66.00;;;18.50;;
2570;SDS011;1295;51.130;6.732;2023-08-30T07:19:56;77.17;;;20.53;;
2570;SDS011;1295;51.130;6.732;2023-08-30T07:22:22;59.67;;;9.90;;
2570;SDS011;1295;51.130;6.732;2023-08-30T07:24:47;59.20;;;16.73;;
2570;SDS011;1295;51.130;6.732;2023-08-30T07:27:14;64.37;;;16.77;;
2570;SDS011;1295;51.130;6.732;2023-08-30T07:29:40;68.83;;;18.40;;
2570;SDS011;1295;51.130;6.732;2023-08-30T07:32:06;60.90;;;18.23;;
2570;SDS011;1295;51.130;6.732;2023-08-30T07:34:32;67.30;;;21.80;;
2570;SDS011;1295;51.130;6.732;2023-08-30T07:36:58;64.00;;;19.33;;
2570;SDS011;1295;51.130;6.732;2023-08-30T07:39:24;62.60;;;20.83;;
2570;SDS011;1295;51.130;6.732;2023-08-30T07:41:50;64.13;;;21.40;;
2570;SDS011;1295;51.130;6.732;2023-08-30T07:44:16;63.07;;;15.47;;
2570;SDS011;1295;51.130;6.732;2023-08-30T07:46:42;61.83;;;13.83;;
2570;SDS011;1295;51.130;6.732;2023-08-30T07:49:07;60.97;;;12.43;;
2570;SDS011;1295;51.130;6.732;2023-08-30T07:51:33;58.10;;;12.33;;
2570;SDS011;1295;51.130;6.732;2023-08-30T07:53:59;62.50;;;16.37;;
2570;SDS011;1295;51.130;6.732;2023-08-30T07:56:24;64.73;;;25.90;;
2570;SDS011;1295;51.130;6.732;2023-08-30T07:58:51;60.77;;;12.03;;
2570;SDS011;1295;51.130;6.732;2023-08-30T08:01:17;70.50;;;27.70;;
2570;SDS011;1295;51.130;6.732;2023-08-30T08:03:43;63.50;;;23.10;;
2570;SDS011;1295;51.130;6.732;2023-08-30T08:06:08;71.37;;;26.13;;
2570;SDS011;1295;51.130;6.732;2023-08-30T08:08:34;59.87;;;13.70;;
2570;SDS011;1295;51.130;6.732;2023-08-30T08:11:00;67.20;;;21.17;;
2570;SDS011;1295;51.130;6.732;2023-08-30T08:13:25;65.17;;;12.63;;
2570;SDS011;1295;51.130;6.732;2023-08-30T08:15:51;62.20;;;14.17;;
2570;SDS011;1295;51.130;6.732;2023-08-30T08:18:17;62.70;;;20.13;;
2570;SDS011;1295;51.130;6.732;2023-08-30T08:20:43;72.20;;;35.63;;
2570;SDS011;1295;51.130;6.732;2023-08-30T08:23:09;69.83;;;41.10;;
2570;SDS011;1295;51.130;6.732;2023-08-30T08:25:34;64.87;;;29.43;;
2570;SDS011;1295;51.130;6.732;2023-08-30T08:28:00;66.00;;;15.17;;
2570;SDS011;1295;51.130;6.732;2023-08-30T08:30:25;61.37;;;12.70;;
2570;SDS011;1295;51.130;6.732;2023-08-30T08:32:51;61.53;;;14.50;;
2570;SDS011;1295;51.130;6.732;2023-08-30T08:35:17;64.87;;;18.37;;
2570;SDS011;1295;51.130;6.732;2023-08-30T08:37:42;60.27;;;12.10;;
2570;SDS011;1295;51.130;6.732;2023-08-30T08:40:08;61.43;;;9.80;;
2570;SDS011;1295;51.130;6.732;2023-08-30T08:42:35;62.27;;;11.73;;
2570;SDS011;1295;51.130;6.732;2023-08-30T08:45:02;61.10;;;14.20;;
2570;SDS011;1295;51.130;6.732;2023-08-30T08:47:30;65.27;;;17.43;;
2570;SDS011;1295;51.130;6.732;2023-08-30T08:49:54;70.23;;;11.83;;
2570;SDS011;1295;51.130;6.732;2023-08-30T08:52:20;62.20;;;17.77;;
2570;SDS011;1295;51.130;6.732;2023-08-30T08:54:45;67.27;;;17.40;;
2570;SDS011;1295;51.130;6.732;2023-08-30T08:57:12;64.67;;;11.03;;
2570;SDS011;1295;51.130;6.732;2023-08-30T08:59:37;56.97;;;8.70;;
2570;SDS011;1295;51.130;6.732;2023-08-30T09:02:03;66.20;;;10.00;;
2570;SDS011;1295;51.130;6.732;2023-08-30T09:04:30;59.03;;;9.77;;
2570;SDS011;1295;51.130;6.732;2023-08-30T09:06:57;61.37;;;10.47;;
2570;SDS011;1295;51.130;6.732;2023-08-30T09:09:22;61.13;;;11.10;;
2570;SDS011;1295;51.130;6.732;2023-08-30T09:11:47;60.83;;;10.40;;
2570;SDS011;1295;51.130;6.732;2023-08-30T09:14:13;58.80;;;9.37;;
2570;SDS011;1295;51.130;6.732;2023-08-30T09:16:39;61.77;;;12.43;;
2570;SDS011;1295;51.130;6.732;2023-08-30T09:19:04;56.93;;;8.13;;
2570;SDS011;1295;51.130;6.732;2023-08-30T09:21:30;63.60;;;11.77;;
2570;SDS011;1295;51.130;6.732;2023-08-30T09:24:00;59.40;;;10.20;;
2570;SDS011;1295;51.130;6.732;2023-08-30T09:26:27;63.47;;;13.23;;
2570;SDS011;1295;51.130;6.732;2023-08-30T09:28:52;59.90;;;10.47;;
2570;SDS011;1295;51.130;6.732;2023-08-30T09:31:17;62.17;;;10.13;;
2570;SDS011;1295;51.130;6.732;2023-08-30T09:33:45;60.20;;;10.90;;
2570;SDS011;1295;51.130;6.732;2023-08-30T09:36:10;59.67;;;8.73;;
2570;SDS011;1295;51.130;6.732;2023-08-30T09:38:36;62.63;;;11.47;;
2570;SDS011;1295;51.130;6.732;2023-08-30T09:41:03;60.30;;;9.80;;
2570;SDS011;1295;51.130;6.732;2023-08-30T09:43:28;60.60;;;9.83;;
2570;SDS011;1295;51.130;6.732;2023-08-30T09:45:54;58.80;;;7.97;;
2570;SDS011;1295;51.130;6.732;2023-08-30T09:48:21;63.10;;;8.13;;
2570;SDS011;1295;51.130;6.732;2023-08-30T09:50:46;60.93;;;8.97;;
2570;SDS011;1295;51.130;6.732;2023-08-30T09:53:12;60.63;;;8.43;;
2570;SDS011;1295;51.130;6.732;2023-08-30T09:55:38;64.40;;;16.97;;
2570;SDS011;1295;51.130;6.732;2023-08-30T09:58:05;63.10;;;11.50;;
2570;SDS011;1295;51.130;6.732;2023-08-30T10:00:31;67.23;;;11.33;;
2570;SDS011;1295;51.130;6.732;2023-08-30T10:02:58;59.40;;;7.90;;
2570;SDS011;1295;51.130;6.732;2023-08-30T10:05:23;57.70;;;8.27;;
2570;SDS011;1295;51.130;6.732;2023-08-30T10:07:49;55.97;;;8.90;;
2570;SDS011;1295;51.130;6.732;2023-08-30T10:10:14;56.33;;;7.47;;
2570;SDS011;1295;51.130;6.732;2023-08-30T10:12:40;61.97;;;9.03;;
2570;SDS011;1295;51.130;6.732;2023-08-30T10:15:05;60.90;;;15.53;;
2570;SDS011;1295;51.130;6.732;2023-08-30T10:17:32;57.47;;;9.33;;
2570;SDS011;1295;51.130;6.732;2023-08-30T10:19:58;61.63;;;8.43;;
2570;SDS011;1295;51.130;6.732;2023-08-30T10:22:23;61.00;;;7.57;;
2570;SDS011;1295;51.130;6.732;2023-08-30T10:24:50;57.60;;;8.40;;
2570;SDS011;1295;51.130;6.732;2023-08-30T10:27:14;66.30;;;9.80;;
2570;SDS011;1295;51.130;6.732;2023-08-30T10:29:40;59.20;;;8.63;;
2570;SDS011;1295;51.130;6.732;2023-08-30T10:32:06;60.80;;;8.83;;
2570;SDS011;1295;51.130;6.732;2023-08-30T10:34:32;57.17;;;7.30;;
2570;SDS011;1295;51.130;6.732;2023-08-30T10:37:01;56.30;;;7.03;;
2570;SDS011;1295;51.130;6.732;2023-08-30T10:39:32;59.07;;;10.97;;
2570;SDS011;1295;51.130;6.732;2023-08-30T10:42:06;64.63;;;21.47;;
2570;SDS011;1295;51.130;6.732;2023-08-30T10:44:26;61.13;;;7.97;;
2570;SDS011;1295;51.130;6.732;2023-08-30T10:46:53;61.27;;;11.13;;
2570;SDS011;1295;51.130;6.732;2023-08-30T10:49:18;57.70;;;8.73;;
2570;SDS011;1295;51.130;6.732;2023-08-30T10:51:45;65.80;;;37.03;;
2570;SDS011;1295;51.130;6.732;2023-08-30T10:54:12;58.03;;;9.07;;
2570;SDS011;1295;51.130;6.732;2023-08-30T10:59:15;54.40;;;6.90;;
2570;SDS011;1295;51.130;6.732;2023-08-30T11:01:36;52.83;;;8.40;;
2570;SDS011;1295;51.130;6.732;2023-08-30T11:04:02;58.10;;;10.23;;
2570;SDS011;1295;51.130;6.732;2023-08-30T11:06:28;58.23;;;9.90;;
2570;SDS011;1295;51.130;6.732;2023-08-30T11:08:54;56.73;;;11.80;;
2570;SDS011;1295;51.130;6.732;2023-08-30T11:11:19;55.30;;;12.03;;
2570;SDS011;1295;51.130;6.732;2023-08-30T11:13:45;52.67;;;7.80;;
2570;SDS011;1295;51.130;6.732;2023-08-30T11:16:11;52.10;;;7.70;;
2570;SDS011;1295;51.130;6.732;2023-08-30T11:18:37;51.57;;;7.37;;
2570;SDS011;1295;51.130;6.732;2023-08-30T11:21:02;52.70;;;8.47;;
2570;SDS011;1295;51.130;6.732;2023-08-30T11:23:28;50.83;;;5.43;;
2570;SDS011;1295;51.130;6.732;2023-08-30T11:25:54;46.73;;;5.10;;
2570;SDS011;1295;51.130;6.732;2023-08-30T11:28:22;50.93;;;6.40;;
2570;SDS011;1295;51.130;6.732;2023-08-30T11:30:48;51.33;;;5.97;;
2570;SDS011;1295;51.130;6.732;2023-08-30T11:33:16;49.37;;;5.60;;
2570;SDS011;1295;51.130;6.732;2023-08-30T11:35:40;50.07;;;5.97;;
2570;SDS011;1295;51.130;6.732;2023-08-30T11:38:05;52.80;;;6.43;;
2570;SDS011;1295;51.130;6.732;2023-08-30T11:40:32;51.53;;;7.43;;
2570;SDS011;1295;51.130;6.732;2023-08-30T11:42:57;51.37;;;5.57;;
2570;SDS011;1295;51.130;6.732;2023-08-30T11:45:23;51.53;;;8.13;;
2570;SDS011;1295;51.130;6.732;2023-08-30T11:47:48;52.37;;;6.43;;
2570;SDS011;1295;51.130;6.732;2023-08-30T11:50:14;54.60;;;6.20;;
2570;SDS011;1295;51.130;6.732;2023-08-30T11:52:41;54.10;;;7.23;;
2570;SDS011;1295;51.130;6.732;2023-08-30T11:55:07;54.60;;;7.10;;
2570;SDS011;1295;51.130;6.732;2023-08-30T11:57:33;55.83;;;8.90;;
2570;SDS011;1295;51.130;6.732;2023-08-30T12:00:06;52.83;;;5.53;;
2570;SDS011;1295;51.130;6.732;2023-08-30T12:02:24;52.40;;;5.70;;
2570;SDS011;1295;51.130;6.732;2023-08-30T12:04:51;54.70;;;6.73;;
2570;SDS011;1295;51.130;6.732;2023-08-30T12:07:22;52.63;;;7.53;;
2570;SDS011;1295;51.130;6.732;2023-08-30T12:09:47;48.97;;;6.63;;
2570;SDS011;1295;51.130;6.732;2023-08-30T12:12:13;53.20;;;7.50;;
2570;SDS011;1295;51.130;6.732;2023-08-30T12:14:38;55.40;;;12.13;;
2570;SDS011;1295;51.130;6.732;2023-08-30T12:17:04;49.60;;;6.67;;
2570;SDS011;1295;51.130;6.732;2023-08-30T12:19:30;51.77;;;6.90;;
2570;SDS011;1295;51.130;6.732;2023-08-30T12:21:55;48.77;;;6.50;;
2570;SDS011;1295;51.130;6.732;2023-08-30T12:24:21;52.77;;;5.30;;
2570;SDS011;1295;51.130;6.732;2023-08-30T12:26:46;47.87;;;5.40;;
2570;SDS011;1295;51.130;6.732;2023-08-30T12:29:12;51.80;;;4.57;;
2570;SDS011;1295;51.130;6.732;2023-08-30T12:31:38;45.37;;;5.70;;
2570;SDS011;1295;51.130;6.732;2023-08-30T12:34:03;51.50;;;6.27;;
2570;SDS011;1295;51.130;6.732;2023-08-30T12:36:36;55.30;;;10.70;;
2570;SDS011;1295;51.130;6.732;2023-08-30T12:39:02;54.70;;;7.30;;
2570;SDS011;1295;51.130;6.732;2023-08-30T12:41:28;48.00;;;7.20;;
2570;SDS011;1295;51.130;6.732;2023-08-30T12:43:54;51.10;;;5.67;;
2570;SDS011;1295;51.130;6.732;2023-08-30T12:46:20;52.90;;;9.00;;
2570;SDS011;1295;51.130;6.732;2023-08-30T12:48:46;49.83;;;4.90;;
2570;SDS011;1295;51.130;6.732;2023-08-30T12:51:12;50.70;;;4.50;;
2570;SDS011;1295;51.130;6.732;2023-08-30T12:53:45;50.43;;;5.10;;
2570;SDS011;1295;51.130;6.732;2023-08-30T12:56:11;51.00;;;5.40;;
2570;SDS011;1295;51.130;6.732;2023-08-30T12:58:36;51.37;;;4.90;;
2570;SDS011;1295;51.130;6.732;2023-08-30T13:01:02;48.90;;;4.70;;
2570;SDS011;1295;51.130;6.732;2023-08-30T13:03:28;52.53;;;4.73;;
2570;SDS011;1295;51.130;6.732;2023-08-30T13:05:54;50.30;;;3.70;;
2570;SDS011;1295;51.130;6.732;2023-08-30T13:08:20;49.40;;;4.90;;
2570;SDS011;1295;51.130;6.732;2023-08-30T13:10:45;91.40;;;10.27;;
2570;SDS011;1295;51.130;6.732;2023-08-30T13:13:11;103.13;;;11.27;;
2570;SDS011;1295;51.130;6.732;2023-08-30T13:15:36;50.93;;;7.80;;
2570;SDS011;1295;51.130;6.732;2023-08-30T13:18:02;52.57;;;12.93;;
2570;SDS011;1295;51.130;6.732;2023-08-30T13:20:28;54.23;;;16.27;;
2570;SDS011;1295;51.130;6.732;2023-08-30T13:22:54;56.90;;;23.90;;
2570;SDS011;1295;51.130;6.732;2023-08-30T13:25:20;56.37;;;16.37;;
2570;SDS011;1295;51.130;6.732;2023-08-30T13:27:45;52.00;;;10.03;;
2570;SDS011;1295;51.130;6.732;2023-08-30T13:30:11;51.70;;;8.27;;
2570;SDS011;1295;51.130;6.732;2023-08-30T13:32:37;49.80;;;5.20;;
2570;SDS011;1295;51.130;6.732;2023-08-30T13:35:02;49.50;;;5.30;;
2570;SDS011;1295;51.130;6.732;2023-08-30T13:37:28;47.27;;;5.57;;
2570;SDS011;1295;51.130;6.732;2023-08-30T13:39:55;49.80;;;6.07;;
2570;SDS011;1295;51.130;6.732;2023-08-30T13:42:21;50.63;;;6.63;;
2570;SDS011;1295;51.130;6.732;2023-08-30T13:44:54;52.70;;;7.40;;
2570;SDS011;1295;51.130;6.732;2023-08-30T13:47:19;52.10;;;7.23;;
2570;SDS011;1295;51.130;6.732;2023-08-30T13:49:45;51.70;;;15.90;;
2570;SDS011;1295;51.130;6.732;2023-08-30T13:52:10;53.10;;;13.10;;
2570;SDS011;1295;51.130;6.732;2023-08-30T13:54:36;57.60;;;23.33;;
2570;SDS011;1295;51.130;6.732;2023-08-30T13:57:02;56.47;;;20.87;;
2570;SDS011;1295;51.130;6.732;2023-08-30T13:59:27;53.93;;;14.90;;
2570;SDS011;1295;51.130;6.732;2023-08-30T14:01:53;54.50;;;19.50;;
2570;SDS011;1295;51.130;6.732;2023-08-30T14:04:26;60.47;;;30.73;;
2570;SDS011;1295;51.130;6.732;2023-08-30T14:06:52;60.40;;;29.10;;
2570;SDS011;1295;51.130;6.732;2023-08-30T14:09:18;58.03;;;24.13;;
2570;SDS011;1295;51.130;6.732;2023-08-30T14:11:43;54.43;;;18.17;;
2570;SDS011;1295;51.130;6.732;2023-08-30T14:14:09;52.90;;;6.63;;
2570;SDS011;1295;51.130;6.732;2023-08-30T14:16:34;55.70;;;14.80;;
2570;SDS011;1295;51.130;6.732;2023-08-30T14:19:01;53.10;;;8.27;;
2570;SDS011;1295;51.130;6.732;2023-08-30T14:21:26;57.27;;;19.40;;
2570;SDS011;1295;51.130;6.732;2023-08-30T14:23:53;55.63;;;10.97;;
2570;SDS011;1295;51.130;6.732;2023-08-30T14:26:18;55.10;;;16.40;;
2570;SDS011;1295;51.130;6.732;2023-08-30T14:28:45;56.77;;;19.43;;
2570;SDS011;1295;51.130;6.732;2023-08-30T14:31:11;54.47;;;15.20;;
2570;SDS011;1295;51.130;6.732;2023-08-30T14:33:37;58.87;;;14.37;;
2570;SDS011;1295;51.130;6.732;2023-08-30T14:36:02;54.07;;;9.90;;
2570;SDS011;1295;51.130;6.732;2023-08-30T14:38:29;51.47;;;6.40;;
2570;SDS011;1295;51.130;6.732;2023-08-30T14:40:55;56.80;;;15.53;;
2570;SDS011;1295;51.130;6.732;2023-08-30T14:43:24;57.77;;;14.10;;
2570;SDS011;1295;51.130;6.732;2023-08-30T14:45:49;53.37;;;7.40;;